createdAt,value
2018-08-23T00:01:30.529Z,20.60
2018-08-23T00:04:05.001Z,20.40
2018-08-23T00:06:34.527Z,20.40
2018-08-23T00:09:04.929Z,20.30
2018-08-23T00:11:38.514Z,20.30
2018-08-23T00:14:07.587Z,20.20
2018-08-23T00:16:44.361Z,20.20
2018-08-23T00:19:13.577Z,20.10
2018-08-23T00:21:44.630Z,20.10
2018-08-23T00:24:24.192Z,20.00
2018-08-23T00:26:55.573Z,19.90
2018-08-23T00:29:26.658Z,20.00
2018-08-23T00:32:05.102Z,19.90
2018-08-23T00:34:35.518Z,19.70
2018-08-23T00:37:05.198Z,19.90
2018-08-23T00:39:34.302Z,19.90
2018-08-23T00:42:05.093Z,19.80
2018-08-23T00:44:51.077Z,19.80
2018-08-23T00:47:20.662Z,19.80
2018-08-23T00:49:49.903Z,19.90
2018-08-23T00:52:21.313Z,19.90
2018-08-23T00:54:50.709Z,19.80
2018-08-23T00:57:19.791Z,19.70
2018-08-23T00:59:53.092Z,19.50
2018-08-23T01:02:22.475Z,19.50
2018-08-23T01:04:51.536Z,19.50
2018-08-23T01:07:22.408Z,19.50
2018-08-23T01:09:51.501Z,19.40
2018-08-23T01:12:20.827Z,19.40
2018-08-23T01:14:51.990Z,19.40
2018-08-23T01:17:21.090Z,19.30
2018-08-23T01:20:00.601Z,19.30
2018-08-23T01:22:29.851Z,19.40
2018-08-23T01:25:00.392Z,19.30
2018-08-23T01:27:35.192Z,19.30
2018-08-23T01:30:04.343Z,19.30
2018-08-23T01:32:33.969Z,19.30
2018-08-23T01:35:03.297Z,19.10
2018-08-23T01:37:36.381Z,19.10
2018-08-23T01:40:07.500Z,19.10
2018-08-23T01:42:37.959Z,18.80
2018-08-23T01:45:08.563Z,19.00
2018-08-23T01:47:53.868Z,19.20
2018-08-23T01:50:23.108Z,18.90
2018-08-23T01:52:53.513Z,18.70
2018-08-23T01:55:23.660Z,18.80
2018-08-23T01:57:52.977Z,18.90
2018-08-23T02:00:26.272Z,18.90
2018-08-23T02:02:55.990Z,18.70
2018-08-23T02:05:25.083Z,18.80
2018-08-23T02:07:54.305Z,18.90
2018-08-23T02:10:23.575Z,18.70
2018-08-23T02:12:55.173Z,18.40
2018-08-23T02:15:24.463Z,18.70
2018-08-23T02:17:55.561Z,18.70
2018-08-23T02:20:25.763Z,18.60
2018-08-23T02:22:55.392Z,18.50
2018-08-23T02:25:24.782Z,18.50
2018-08-23T02:28:02.220Z,18.50
2018-08-23T02:30:48.920Z,18.40
2018-08-23T02:33:18.429Z,18.60
2018-08-23T02:35:59.195Z,18.50
2018-08-23T02:38:29.519Z,18.50
2018-08-23T02:40:58.693Z,18.30
2018-08-23T02:43:27.787Z,18.40
2018-08-23T02:45:56.916Z,18.40
2018-08-23T02:48:26.219Z,18.30
2018-08-23T02:50:55.308Z,18.20
2018-08-23T02:53:33.305Z,18.20
2018-08-23T02:56:04.989Z,18.20
2018-08-23T02:58:37.580Z,18.00
2018-08-23T03:01:06.647Z,18.10
2018-08-23T03:03:35.740Z,18.10
2018-08-23T03:06:04.818Z,18.10
2018-08-23T03:08:42.522Z,18.00
2018-08-23T03:11:11.887Z,18.00
2018-08-23T03:13:43.423Z,18.10
2018-08-23T03:16:13.053Z,18.10
2018-08-23T03:18:42.708Z,18.10
2018-08-23T03:21:11.757Z,17.90
2018-08-23T03:23:44.872Z,18.00
2018-08-23T03:26:14.213Z,18.00
2018-08-23T03:28:43.284Z,17.90
2018-08-23T03:31:12.359Z,17.90
2018-08-23T03:33:41.433Z,17.60
2018-08-23T03:36:10.588Z,17.70
2018-08-23T03:38:39.829Z,17.90
2018-08-23T03:41:08.960Z,17.90
2018-08-23T03:43:38.164Z,17.70
2018-08-23T03:46:07.228Z,17.90
2018-08-23T03:48:36.396Z,17.80
2018-08-23T03:51:05.452Z,17.80
2018-08-23T03:53:47.276Z,17.80
2018-08-23T03:56:17.612Z,17.90
2018-08-23T03:58:46.728Z,17.90
2018-08-23T04:01:16.427Z,17.80
2018-08-23T04:03:45.544Z,17.70
2018-08-23T04:06:37.495Z,17.80
2018-08-23T04:09:08.957Z,17.70
2018-08-23T04:11:38.028Z,17.60
2018-08-23T04:14:07.088Z,17.30
2018-08-23T04:16:36.156Z,17.20
2018-08-23T04:19:05.294Z,17.20
2018-08-23T04:21:34.476Z,17.30
2018-08-23T04:24:03.677Z,17.50
2018-08-23T04:26:32.804Z,17.40
2018-08-23T04:29:01.901Z,17.40
2018-08-23T04:31:30.952Z,17.40
2018-08-23T04:34:04.172Z,17.50
2018-08-23T04:36:33.957Z,17.40
2018-08-23T04:39:05.966Z,17.50
2018-08-23T04:41:35.085Z,17.70
2018-08-23T04:44:11.117Z,17.60
2018-08-23T04:46:40.193Z,17.50
2018-08-23T04:49:09.373Z,17.50
2018-08-23T04:51:38.464Z,17.50
2018-08-23T04:54:07.564Z,17.40
2018-08-23T04:56:36.657Z,17.50
2018-08-23T04:59:05.937Z,17.50
2018-08-23T05:01:35.032Z,17.50
2018-08-23T05:04:04.207Z,17.50
2018-08-23T05:06:33.317Z,17.60
2018-08-23T05:09:02.404Z,17.90
2018-08-23T05:11:31.460Z,18.00
2018-08-23T05:14:00.606Z,18.10
2018-08-23T05:16:29.937Z,18.10
2018-08-23T05:18:59.045Z,18.20
2018-08-23T05:21:28.268Z,18.50
2018-08-23T05:24:16.426Z,18.50
2018-08-23T05:26:45.520Z,18.60
2018-08-23T05:29:14.692Z,18.50
2018-08-23T05:31:44.180Z,18.50
2018-08-23T05:34:13.341Z,18.70
2018-08-23T05:36:42.533Z,18.90
2018-08-23T05:39:11.601Z,19.10
2018-08-23T05:41:40.837Z,19.30
2018-08-23T05:44:15.600Z,19.40
2018-08-23T05:46:48.969Z,19.60
2018-08-23T05:49:18.375Z,19.80
2018-08-23T05:51:47.504Z,19.90
2018-08-23T05:54:16.608Z,19.90
2018-08-23T05:56:45.676Z,20.10
2018-08-23T05:59:18.384Z,20.00
2018-08-23T06:01:48.158Z,20.20
2018-08-23T06:04:18.276Z,20.20
2018-08-23T06:06:47.387Z,20.10
2018-08-23T06:09:16.775Z,19.70
2018-08-23T06:11:45.868Z,20.20
2018-08-23T06:14:14.975Z,20.60
2018-08-23T06:16:48.732Z,20.90
2018-08-23T06:19:18.014Z,21.30
2018-08-23T06:21:47.089Z,21.40
2018-08-23T06:24:16.205Z,21.20
2018-08-23T06:26:50.111Z,21.20
2018-08-23T06:29:23.413Z,21.40
2018-08-23T06:32:02.586Z,21.40
2018-08-23T06:34:36.536Z,21.30
2018-08-23T06:37:05.761Z,21.40
2018-08-23T06:39:34.912Z,21.20
2018-08-23T06:42:04.422Z,21.20
2018-08-23T06:44:37.880Z,21.80
2018-08-23T06:47:07.029Z,21.40
2018-08-23T06:49:36.140Z,22.20
2018-08-23T06:52:09.454Z,22.50
2018-08-23T06:54:38.936Z,22.50
2018-08-23T06:57:08.126Z,22.30
2018-08-23T06:59:37.919Z,22.70
2018-08-23T07:02:07.530Z,23.10
2018-08-23T07:04:36.908Z,23.10
2018-08-23T07:07:06.021Z,23.30
2018-08-23T07:09:40.679Z,23.00
2018-08-23T07:12:15.283Z,22.80
2018-08-23T07:14:46.180Z,23.50
2018-08-23T07:17:20.911Z,23.10
2018-08-23T07:19:50.799Z,23.20
2018-08-23T07:22:22.121Z,23.40
2018-08-23T07:24:52.652Z,23.90
2018-08-23T07:27:22.409Z,24.10
2018-08-23T07:29:55.695Z,24.70
2018-08-23T07:32:26.038Z,24.50
2018-08-23T07:35:01.571Z,24.90
2018-08-23T07:37:31.869Z,25.40
2018-08-23T07:40:06.579Z,25.00
2018-08-23T07:42:36.250Z,24.70
2018-08-23T07:45:06.044Z,24.60
2018-08-23T07:47:38.836Z,25.10
2018-08-23T07:50:08.515Z,25.50
2018-08-23T07:52:38.411Z,25.50
2018-08-23T07:55:07.761Z,25.10
2018-08-23T07:57:37.860Z,25.50
2018-08-23T08:00:42.595Z,25.70
2018-08-23T08:03:13.039Z,26.30
2018-08-23T08:05:43.545Z,25.80
2018-08-23T08:08:13.552Z,25.60
2018-08-23T08:10:46.224Z,26.40
2018-08-23T08:13:15.344Z,26.50
2018-08-23T08:15:44.465Z,26.70
2018-08-23T08:18:23.044Z,26.10
2018-08-23T08:21:04.513Z,26.50
2018-08-23T08:23:33.845Z,26.20
2018-08-23T08:26:03.001Z,26.00
2018-08-23T08:28:32.103Z,26.50
2018-08-23T08:31:02.161Z,27.00
2018-08-23T08:33:34.215Z,27.00
2018-08-23T08:36:04.425Z,27.40
2018-08-23T08:38:34.161Z,27.70
2018-08-23T08:41:03.257Z,27.30
2018-08-23T08:43:32.449Z,27.40
2018-08-23T08:46:01.634Z,28.00
2018-08-23T08:48:31.873Z,28.10
2018-08-23T08:51:32.403Z,27.60
2018-08-23T08:54:02.834Z,27.30
2018-08-23T08:56:36.407Z,26.80
2018-08-23T08:59:05.498Z,28.10
2018-08-23T09:01:34.680Z,28.00
2018-08-23T09:04:04.225Z,27.90
2018-08-23T09:06:45.993Z,27.50
2018-08-23T09:09:30.733Z,27.20
2018-08-23T09:12:02.816Z,27.30
2018-08-23T09:14:32.157Z,28.90
2018-08-23T09:17:15.829Z,28.20
2018-08-23T09:19:57.298Z,28.40
2018-08-23T09:22:26.893Z,28.30
2018-08-23T09:24:56.518Z,28.50
2018-08-23T09:27:25.743Z,27.90
2018-08-23T09:29:55.001Z,27.90
2018-08-23T09:32:27.593Z,28.30
2018-08-23T09:34:57.933Z,29.00
2018-08-23T09:37:28.045Z,29.30
2018-08-23T09:39:57.483Z,28.80
2018-08-23T09:42:31.334Z,29.50
2018-08-23T09:45:07.207Z,29.40
2018-08-23T09:47:36.489Z,29.20
2018-08-23T09:50:05.923Z,28.80
2018-08-23T09:52:39.249Z,28.70
2018-08-23T09:55:09.617Z,28.90
2018-08-23T09:57:38.988Z,29.00
2018-08-23T10:00:12.673Z,29.00
2018-08-23T10:02:47.505Z,28.80
2018-08-23T10:05:22.236Z,28.70
2018-08-23T10:07:57.749Z,28.70
2018-08-23T10:10:32.254Z,28.80
2018-08-23T10:13:06.877Z,29.30
2018-08-23T10:15:41.879Z,29.60
2018-08-23T10:18:16.560Z,29.50
2018-08-23T10:20:51.015Z,29.50
2018-08-23T10:23:24.155Z,29.50
2018-08-23T10:25:54.329Z,30.70
2018-08-23T10:28:24.758Z,30.70
2018-08-23T10:30:54.253Z,31.10
2018-08-23T10:33:23.399Z,30.60
2018-08-23T10:35:53.873Z,31.30
2018-08-23T10:38:24.766Z,31.40
2018-08-23T10:40:58.145Z,30.90
2018-08-23T10:43:32.973Z,31.50
2018-08-23T10:46:03.068Z,31.30
2018-08-23T10:48:32.265Z,31.10
2018-08-23T10:51:01.515Z,30.50
2018-08-23T10:53:30.568Z,30.40
2018-08-23T10:55:59.649Z,30.80
2018-08-23T10:58:29.125Z,32.10
2018-08-23T11:00:58.383Z,31.80
2018-08-23T11:03:27.432Z,32.10
2018-08-23T11:05:56.615Z,31.70
2018-08-23T11:08:31.041Z,31.60
2018-08-23T11:11:05.844Z,31.50
2018-08-23T11:13:40.639Z,31.50
2018-08-23T11:16:15.160Z,31.70
2018-08-23T11:18:49.791Z,32.50
2018-08-23T11:21:19.264Z,32.60
2018-08-23T11:23:48.943Z,31.30
2018-08-23T11:26:25.941Z,31.30
2018-08-23T11:28:55.200Z,31.30
2018-08-23T11:32:47.401Z,31.60
2018-08-23T11:35:16.686Z,32.20
2018-08-23T11:37:45.756Z,32.40
2018-08-23T11:40:15.141Z,31.70
2018-08-23T11:42:44.492Z,31.20
2018-08-23T11:45:13.941Z,31.30
2018-08-23T11:47:43.212Z,31.00
2018-08-23T11:50:12.605Z,31.00
2018-08-23T11:52:41.801Z,31.40
2018-08-23T11:55:10.953Z,31.00
2018-08-23T11:57:40.152Z,31.10
2018-08-23T12:00:09.367Z,32.00
2018-08-23T12:02:42.267Z,32.00
2018-08-23T12:05:13.340Z,31.50
2018-08-23T12:07:49.393Z,31.50
2018-08-23T12:10:20.047Z,32.10
2018-08-23T12:12:50.713Z,31.10
2018-08-23T12:15:27.179Z,31.60
2018-08-23T12:17:57.026Z,32.50
2018-08-23T12:20:26.201Z,31.90
2018-08-23T12:22:55.239Z,31.80
2018-08-23T12:25:24.409Z,31.80
2018-08-23T12:28:01.258Z,32.10
2018-08-23T12:30:31.692Z,31.80
2018-08-23T12:33:07.534Z,32.10
2018-08-23T12:35:36.885Z,33.00
2018-08-23T12:38:16.805Z,33.00
2018-08-23T12:40:51.368Z,32.40
2018-08-23T12:43:21.699Z,32.40
2018-08-23T12:45:50.938Z,32.20
2018-08-23T12:48:20.232Z,33.20
2018-08-23T12:50:49.392Z,32.80
2018-08-23T12:53:18.567Z,33.00
2018-08-23T12:55:47.622Z,33.50
2018-08-23T12:58:16.811Z,33.60
2018-08-23T13:00:45.940Z,34.20
2018-08-23T13:03:15.089Z,33.80
2018-08-23T13:05:44.257Z,33.90
2018-08-23T13:08:14.060Z,33.90
2018-08-23T13:10:43.276Z,33.20
2018-08-23T13:13:12.524Z,33.50
2018-08-23T13:15:41.731Z,33.70
2018-08-23T13:18:11.165Z,33.10
2018-08-23T13:20:40.333Z,33.30
2018-08-23T13:23:09.428Z,32.40
2018-08-23T13:25:42.973Z,32.70
2018-08-23T13:28:12.108Z,32.80
2018-08-23T13:30:41.404Z,32.70
2018-08-23T13:33:10.463Z,32.70
2018-08-23T13:35:39.705Z,32.80
2018-08-23T13:38:08.800Z,33.20
2018-08-23T13:40:37.875Z,33.10
2018-08-23T13:43:07.151Z,33.40
2018-08-23T13:45:36.358Z,34.00
2018-08-23T13:48:05.645Z,33.20
2018-08-23T13:50:35.265Z,33.40
2018-08-23T13:53:04.394Z,33.70
2018-08-23T13:55:33.478Z,33.60
2018-08-23T13:58:02.752Z,33.20
2018-08-23T14:00:39.218Z,33.10
2018-08-23T14:03:09.203Z,33.20
2018-08-23T14:05:39.504Z,33.30
2018-08-23T14:08:08.812Z,33.20
2018-08-23T14:10:38.524Z,33.20
2018-08-23T14:13:08.124Z,33.70
2018-08-23T14:15:43.785Z,33.80
2018-08-23T14:18:14.157Z,32.90
2018-08-23T14:20:44.947Z,32.70
2018-08-23T14:23:15.293Z,32.70
2018-08-23T14:25:45.587Z,33.00
2018-08-23T14:28:14.786Z,33.20
2018-08-23T14:30:44.784Z,32.60
2018-08-23T14:33:13.965Z,32.30
2018-08-23T14:35:43.224Z,32.00
2018-08-23T14:38:12.277Z,31.90
2018-08-23T14:40:41.395Z,32.00
2018-08-23T14:43:10.774Z,32.30
2018-08-23T14:45:39.843Z,32.30
2018-08-23T14:48:14.486Z,32.30
2018-08-23T14:50:43.785Z,32.40
2018-08-23T14:53:17.085Z,32.40
2018-08-23T14:55:51.980Z,32.80
2018-08-23T14:58:21.824Z,32.10
2018-08-23T15:00:50.975Z,31.90
2018-08-23T15:03:20.067Z,31.90
2018-08-23T15:05:49.393Z,31.90
2018-08-23T15:08:18.724Z,31.80
2018-08-23T15:10:48.047Z,32.20
2018-08-23T15:13:17.424Z,31.90
2018-08-23T15:15:49.641Z,31.90
2018-08-23T15:18:20.940Z,31.50
2018-08-23T15:20:51.218Z,31.60
2018-08-23T15:23:20.255Z,31.60
2018-08-23T15:25:49.401Z,31.30
2018-08-23T15:28:18.599Z,31.20
2018-08-23T15:30:47.754Z,31.40
2018-08-23T15:33:18.233Z,31.50
2018-08-23T15:35:47.575Z,31.50
2018-08-23T15:38:16.669Z,31.40
2018-08-23T15:40:45.801Z,31.40
2018-08-23T15:43:14.960Z,31.60
2018-08-23T15:45:44.290Z,31.70
2018-08-23T15:48:13.527Z,31.60
2018-08-23T15:50:42.751Z,31.80
2018-08-23T15:53:12.975Z,31.60
2018-08-23T15:55:42.124Z,31.40
2018-08-23T15:58:11.254Z,31.40
2018-08-23T16:00:41.403Z,31.10
2018-08-23T16:03:11.838Z,30.80
2018-08-23T16:05:41.946Z,31.10
2018-08-23T16:08:11.848Z,30.70
2018-08-23T16:10:40.923Z,30.70
2018-08-23T16:13:10.039Z,30.40
2018-08-23T16:15:39.097Z,30.40
2018-08-23T16:18:13.557Z,30.50
2018-08-23T16:20:53.649Z,30.40
2018-08-23T16:23:22.903Z,30.40
2018-08-23T16:25:52.099Z,30.00
2018-08-23T16:28:21.221Z,29.80
2018-08-23T16:30:50.317Z,30.10
2018-08-23T16:33:19.407Z,29.90
2018-08-23T16:35:48.735Z,29.60
2018-08-23T16:38:17.947Z,29.40
2018-08-23T16:40:47.289Z,29.20
2018-08-23T16:43:16.508Z,29.30
2018-08-23T16:45:45.624Z,29.10
2018-08-23T16:48:14.720Z,29.00
2018-08-23T16:50:43.970Z,29.20
2018-08-23T16:53:13.149Z,29.10
2018-08-23T16:55:42.312Z,29.00
2018-08-23T16:58:12.592Z,29.10
2018-08-23T17:00:41.715Z,29.10
2018-08-23T17:03:11.393Z,29.00
2018-08-23T17:05:40.539Z,29.00
2018-08-23T17:08:09.691Z,29.10
2018-08-23T17:10:38.937Z,29.10
2018-08-23T17:13:13.092Z,29.00
2018-08-23T17:15:47.812Z,28.90
2018-08-23T17:18:17.129Z,28.80
2018-08-23T17:20:46.153Z,28.80
2018-08-23T17:23:15.355Z,28.80
2018-08-23T17:25:44.414Z,28.80
2018-08-23T17:28:13.606Z,28.70
2018-08-23T17:30:42.947Z,28.60
2018-08-23T17:33:11.992Z,28.50
2018-08-23T17:35:41.120Z,28.40
2018-08-23T17:38:10.241Z,28.40
2018-08-23T17:40:39.308Z,28.30
2018-08-23T17:43:08.404Z,28.30
2018-08-23T17:45:37.530Z,28.30
2018-08-23T17:48:06.694Z,28.20
2018-08-23T17:50:35.920Z,28.20
2018-08-23T17:53:05.424Z,28.10
2018-08-23T17:55:34.586Z,27.90
2018-08-23T17:58:03.677Z,27.80
2018-08-23T18:00:33.059Z,27.80
2018-08-23T18:03:02.217Z,27.60
2018-08-23T18:05:31.524Z,27.50
2018-08-23T18:08:00.620Z,27.50
2018-08-23T18:10:29.736Z,27.40
2018-08-23T18:12:58.828Z,27.30
2018-08-23T18:22:34.090Z,27.20
2018-08-23T18:25:03.175Z,26.90
2018-08-23T18:27:32.280Z,26.90
2018-08-23T18:30:01.392Z,26.80
2018-08-23T18:32:30.690Z,26.70
2018-08-23T18:34:59.683Z,26.70
2018-08-23T18:37:28.944Z,26.60
2018-08-23T18:39:57.997Z,26.50
2018-08-23T18:42:27.153Z,26.50
2018-08-23T18:44:56.265Z,26.30
2018-08-23T18:47:25.521Z,26.10
2018-08-23T18:49:54.590Z,25.90
2018-08-23T18:52:23.736Z,25.80
2018-08-23T18:54:53.040Z,25.70
2018-08-23T18:57:22.212Z,25.60
2018-08-23T18:59:51.520Z,25.80
2018-08-23T19:02:22.754Z,25.70
2018-08-23T19:04:52.220Z,25.70
2018-08-23T19:07:26.832Z,25.70
2018-08-23T19:09:59.445Z,25.60
2018-08-23T19:12:29.634Z,25.50
2018-08-23T19:14:58.718Z,25.50
2018-08-23T19:17:38.075Z,25.40
2018-08-23T19:20:08.211Z,25.50
2018-08-23T19:22:37.664Z,25.50
2018-08-23T19:25:08.224Z,25.50
2018-08-23T19:27:37.617Z,25.50
2018-08-23T19:30:07.766Z,25.50
2018-08-23T19:32:36.887Z,25.30
2018-08-23T19:35:06.053Z,25.30
2018-08-23T19:37:35.150Z,25.30
2018-08-23T19:40:04.302Z,25.20
2018-08-23T19:42:33.567Z,25.20
2018-08-23T19:45:02.976Z,25.30
2018-08-23T19:47:37.534Z,25.30
2018-08-23T19:50:08.478Z,25.30
2018-08-23T19:52:37.612Z,25.30
2018-08-23T19:55:08.392Z,25.20
2018-08-23T19:57:37.726Z,25.20
2018-08-23T20:00:08.729Z,24.90
2018-08-23T20:02:38.078Z,24.90
2018-08-23T20:05:07.289Z,25.00
2018-08-23T20:07:36.385Z,25.00
2018-08-23T20:10:05.604Z,24.90
2018-08-23T20:12:34.819Z,24.80
2018-08-23T20:15:03.999Z,24.90
2018-08-23T20:17:33.172Z,24.90
2018-08-23T20:20:02.402Z,24.90
2018-08-23T20:22:31.594Z,24.90
2018-08-23T20:25:01.007Z,24.80
2018-08-23T20:27:30.323Z,24.80
2018-08-23T20:29:59.637Z,24.70
2018-08-23T20:32:29.276Z,24.60
2018-08-23T20:34:58.446Z,24.60
2018-08-23T20:37:27.700Z,24.40
2018-08-23T20:39:57.160Z,24.30
2018-08-23T20:42:26.846Z,24.30
2018-08-23T20:44:56.050Z,24.20
2018-08-23T20:47:25.229Z,24.10
2018-08-23T20:49:54.456Z,24.10
2018-08-23T20:52:23.702Z,24.00
2018-08-23T20:54:52.897Z,24.00
2018-08-23T20:57:22.035Z,24.00
2018-08-23T20:59:51.175Z,24.00
2018-08-23T21:02:20.385Z,24.00
2018-08-23T21:04:49.537Z,24.00
2018-08-23T21:07:18.695Z,24.00
2018-08-23T21:09:47.865Z,23.90
2018-08-23T21:12:16.964Z,23.70
2018-08-23T21:14:46.077Z,23.60
2018-08-23T21:17:15.175Z,23.50
2018-08-23T21:19:44.446Z,23.40
2018-08-23T21:22:13.524Z,23.20
2018-08-23T21:24:42.633Z,23.20
2018-08-23T21:27:11.749Z,23.20
2018-08-23T21:29:40.796Z,23.10
2018-08-23T21:32:09.879Z,23.00
2018-08-23T21:34:38.981Z,22.90
2018-08-23T21:37:08.047Z,22.90
2018-08-23T21:39:37.213Z,22.90
2018-08-23T21:42:06.455Z,22.80
2018-08-23T21:44:36.395Z,22.80
2018-08-23T21:47:06.449Z,22.80
2018-08-23T21:49:35.606Z,22.70
2018-08-23T21:52:04.741Z,22.70
2018-08-23T21:54:33.831Z,22.80
2018-08-23T21:57:02.932Z,22.80
2018-08-23T21:59:32.083Z,22.60
2018-08-23T22:02:06.641Z,22.60
2018-08-23T22:04:41.089Z,22.60
2018-08-23T22:07:10.561Z,22.50
2018-08-23T22:09:39.978Z,22.50
2018-08-23T22:12:09.144Z,22.50
2018-08-23T22:14:38.381Z,22.40
2018-08-23T22:17:08.378Z,22.30
2018-08-23T22:19:37.652Z,22.20
2018-08-23T22:22:06.961Z,22.20
2018-08-23T22:24:36.164Z,22.10
2018-08-23T22:27:06.005Z,22.20
2018-08-23T22:29:36.292Z,22.10
2018-08-23T22:32:05.901Z,22.10
2018-08-23T22:34:35.401Z,22.10
2018-08-23T22:37:04.788Z,22.20
2018-08-23T22:39:34.082Z,22.20
2018-08-23T22:42:03.333Z,22.30
2018-08-23T22:44:32.528Z,22.20
2018-08-23T22:47:01.701Z,22.20
2018-08-23T22:49:30.970Z,22.20
2018-08-23T22:52:00.289Z,22.20
2018-08-23T22:54:29.472Z,22.10
2018-08-23T22:56:59.013Z,22.10
2018-08-23T22:59:28.175Z,22.00
2018-08-23T23:01:58.218Z,22.00
2018-08-23T23:04:28.592Z,21.90
2018-08-23T23:06:59.156Z,21.90
2018-08-23T23:09:28.375Z,21.90
2018-08-23T23:11:57.644Z,21.80
2018-08-23T23:14:27.724Z,21.80
2018-08-23T23:16:57.135Z,21.80
2018-08-23T23:19:26.482Z,21.80
2018-08-23T23:21:55.737Z,21.70
2018-08-23T23:24:30.456Z,21.80
2018-08-23T23:27:00.504Z,21.80
2018-08-23T23:29:30.275Z,21.80
2018-08-23T23:31:59.814Z,21.70
2018-08-23T23:34:29.180Z,21.70
2018-08-23T23:36:58.801Z,21.80
2018-08-23T23:39:28.040Z,21.70
2018-08-23T23:41:57.489Z,21.80
2018-08-23T23:44:26.733Z,21.80
2018-08-23T23:46:55.991Z,21.70
2018-08-23T23:49:25.318Z,21.70
2018-08-23T23:51:55.236Z,21.70
2018-08-23T23:54:24.869Z,21.60
2018-08-23T23:56:54.155Z,21.60
2018-08-23T23:59:23.815Z,21.60
